createdAt,value
2019-03-06T00:00:19.557Z,1.4
2019-03-06T00:01:21.735Z,1.5
2019-03-06T00:02:23.859Z,1.5
2019-03-06T00:03:26.271Z,1.6
2019-03-06T00:04:28.421Z,1.6
2019-03-06T00:05:30.924Z,1.5
2019-03-06T00:06:34.124Z,1.6
2019-03-06T00:07:36.500Z,1.5
2019-03-06T00:08:38.620Z,1.6
2019-03-06T00:09:40.750Z,1.7
2019-03-06T00:10:43.290Z,1.7
2019-03-06T00:11:45.409Z,1.7
2019-03-06T00:12:47.945Z,1.7
2019-03-06T00:13:50.078Z,1.7
2019-03-06T00:14:52.205Z,1.7
2019-03-06T00:15:54.342Z,1.7
2019-03-06T00:16:56.480Z,1.7
2019-03-06T00:17:59.179Z,1.7
2019-03-06T00:19:01.417Z,1.7
2019-03-06T00:20:04.569Z,1.8
2019-03-06T00:21:07.162Z,1.8
2019-03-06T00:22:09.719Z,1.7
2019-03-06T00:23:11.846Z,1.6
2019-03-06T00:24:13.973Z,1.7
2019-03-06T00:25:16.409Z,1.7
2019-03-06T00:26:18.879Z,1.7
2019-03-06T00:27:20.995Z,1.7
2019-03-06T00:28:23.134Z,1.6
2019-03-06T00:29:25.299Z,1.7
2019-03-06T00:30:27.425Z,1.7
2019-03-06T00:31:29.575Z,1.7
2019-03-06T00:32:32.514Z,1.7
2019-03-06T00:33:34.962Z,1.7
2019-03-06T00:34:37.067Z,1.7
2019-03-06T00:35:39.203Z,1.7
2019-03-06T00:36:41.349Z,1.7
2019-03-06T00:37:43.487Z,1.7
2019-03-06T00:38:45.597Z,1.7
2019-03-06T00:39:47.751Z,1.7
2019-03-06T00:40:49.881Z,1.7
2019-03-06T00:41:52.320Z,1.6
2019-03-06T00:42:54.455Z,1.6
2019-03-06T00:43:56.595Z,1.6
2019-03-06T00:44:59.001Z,1.7
2019-03-06T00:46:01.954Z,1.7
2019-03-06T00:47:04.598Z,1.7
2019-03-06T00:48:06.729Z,1.8
2019-03-06T00:49:08.861Z,1.8
2019-03-06T00:50:11.004Z,1.7
2019-03-06T00:51:13.115Z,1.7
2019-03-06T00:52:15.252Z,1.7
2019-03-06T00:53:17.382Z,1.7
2019-03-06T00:54:19.490Z,1.7
2019-03-06T00:55:21.632Z,1.7
2019-03-06T00:56:23.760Z,1.7
2019-03-06T00:57:25.901Z,1.7
2019-03-06T00:58:28.650Z,1.7
2019-03-06T00:59:31.089Z,1.6
2019-03-06T01:00:33.197Z,1.7
2019-03-06T01:01:35.380Z,1.6
2019-03-06T01:02:37.528Z,1.6
2019-03-06T01:03:39.637Z,1.6
2019-03-06T01:04:41.775Z,1.6
2019-03-06T01:05:43.949Z,1.6
2019-03-06T01:06:46.088Z,1.6
2019-03-06T01:07:48.207Z,1.7
2019-03-06T01:08:50.350Z,1.8
2019-03-06T01:09:52.487Z,1.8
2019-03-06T01:10:54.616Z,1.8
2019-03-06T01:11:57.583Z,1.8
2019-03-06T01:13:00.190Z,1.8
2019-03-06T01:14:02.325Z,1.8
2019-03-06T01:15:04.760Z,1.8
2019-03-06T01:16:07.198Z,1.8
2019-03-06T01:17:09.311Z,1.8
2019-03-06T01:18:11.442Z,1.8
2019-03-06T01:19:13.846Z,1.7
2019-03-06T01:20:16.332Z,1.7
2019-03-06T01:21:18.755Z,1.7
2019-03-06T01:22:20.884Z,1.8
2019-03-06T01:23:23.068Z,1.8
2019-03-06T01:24:25.646Z,1.8
2019-03-06T01:25:28.032Z,1.7
2019-03-06T01:26:31.017Z,1.7
2019-03-06T01:27:33.155Z,1.8
2019-03-06T01:28:35.273Z,1.8
2019-03-06T01:29:37.415Z,1.8
2019-03-06T01:30:39.544Z,1.7
2019-03-06T01:31:41.693Z,1.7
2019-03-06T01:32:43.839Z,1.8
2019-03-06T01:33:45.988Z,1.7
2019-03-06T01:34:48.117Z,1.8
2019-03-06T01:35:50.236Z,1.8
2019-03-06T01:36:52.401Z,1.7
2019-03-06T01:37:55.071Z,1.7
2019-03-06T01:38:57.588Z,1.7
2019-03-06T01:39:59.723Z,1.7
2019-03-06T01:41:01.873Z,1.7
2019-03-06T01:42:03.988Z,1.7
2019-03-06T01:43:06.115Z,1.7
2019-03-06T01:44:08.263Z,1.7
2019-03-06T01:45:11.082Z,1.7
2019-03-06T01:46:13.226Z,1.7
2019-03-06T01:47:15.361Z,1.6
2019-03-06T01:48:17.477Z,1.7
2019-03-06T01:49:19.594Z,1.8
2019-03-06T01:50:22.010Z,1.7
2019-03-06T01:51:24.830Z,1.7
2019-03-06T01:52:27.331Z,1.8
2019-03-06T01:53:29.486Z,1.7
2019-03-06T01:54:32.401Z,1.7
2019-03-06T01:55:34.529Z,1.7
2019-03-06T01:56:36.653Z,1.7
2019-03-06T01:57:39.082Z,1.7
2019-03-06T01:58:41.221Z,1.7
2019-03-06T01:59:43.656Z,1.8
2019-03-06T02:00:45.802Z,1.8
2019-03-06T02:01:47.922Z,1.8
2019-03-06T02:02:50.054Z,1.7
2019-03-06T02:03:52.488Z,1.8
2019-03-06T02:04:54.891Z,1.8
2019-03-06T02:05:57.799Z,1.8
2019-03-06T02:06:59.953Z,1.7
2019-03-06T02:08:02.082Z,1.7
2019-03-06T02:09:04.204Z,1.7
2019-03-06T02:10:06.359Z,1.7
2019-03-06T02:11:08.760Z,1.6
2019-03-06T02:12:11.266Z,1.5
2019-03-06T02:13:13.380Z,1.6
2019-03-06T02:14:15.525Z,1.6
2019-03-06T02:15:17.658Z,1.7
2019-03-06T02:16:19.797Z,1.7
2019-03-06T02:17:22.594Z,1.7
2019-03-06T02:18:25.103Z,1.8
2019-03-06T02:19:27.249Z,1.7
2019-03-06T02:20:29.391Z,1.7
2019-03-06T02:21:31.535Z,1.7
2019-03-06T02:22:33.662Z,1.7
2019-03-06T02:23:35.804Z,1.7
2019-03-06T02:24:37.957Z,1.7
2019-03-06T02:25:40.100Z,1.7
2019-03-06T02:26:42.268Z,1.8
2019-03-06T02:27:44.806Z,1.8
2019-03-06T02:28:46.934Z,1.8
2019-03-06T02:29:49.720Z,1.8
2019-03-06T02:30:52.133Z,1.8
2019-03-06T02:31:54.759Z,1.7
2019-03-06T02:32:57.578Z,1.7
2019-03-06T02:34:00.053Z,1.7
2019-03-06T02:35:02.563Z,1.8
2019-03-06T02:36:05.043Z,1.8
2019-03-06T02:37:07.857Z,1.8
2019-03-06T02:38:10.010Z,1.8
2019-03-06T02:39:12.430Z,1.8
2019-03-06T02:40:15.206Z,1.8
2019-03-06T02:41:17.926Z,1.8
2019-03-06T02:42:20.667Z,1.8
2019-03-06T02:43:23.692Z,1.8
2019-03-06T02:44:26.744Z,1.7
2019-03-06T02:45:28.876Z,1.7
2019-03-06T02:46:31.294Z,1.7
2019-03-06T02:47:33.454Z,1.7
2019-03-06T02:48:35.861Z,1.7
2019-03-06T02:49:38.388Z,1.7
2019-03-06T02:50:40.537Z,1.7
2019-03-06T02:51:42.725Z,1.7
2019-03-06T02:52:45.156Z,1.8
2019-03-06T02:53:47.679Z,1.8
2019-03-06T02:54:49.815Z,1.7
2019-03-06T02:55:52.835Z,1.7
2019-03-06T02:56:55.354Z,1.7
2019-03-06T02:57:57.546Z,1.7
2019-03-06T02:59:00.011Z,1.7
2019-03-06T03:00:02.205Z,1.7
2019-03-06T03:01:04.944Z,1.8
2019-03-06T03:02:07.395Z,1.7
2019-03-06T03:03:09.891Z,1.7
2019-03-06T03:04:12.324Z,1.7
2019-03-06T03:05:15.050Z,1.7
2019-03-06T03:06:17.588Z,1.8
2019-03-06T03:07:20.054Z,1.7
2019-03-06T03:08:22.755Z,1.7
2019-03-06T03:09:25.587Z,1.7
2019-03-06T03:10:28.375Z,1.8
2019-03-06T03:11:30.931Z,1.8
2019-03-06T03:12:33.851Z,1.8
2019-03-06T03:13:36.290Z,1.8
2019-03-06T03:14:38.455Z,1.8
2019-03-06T03:15:40.634Z,1.8
2019-03-06T03:16:43.134Z,1.7
2019-03-06T03:17:45.258Z,1.7
2019-03-06T03:18:48.004Z,1.7
2019-03-06T03:19:50.152Z,1.7
2019-03-06T03:20:52.623Z,1.7
2019-03-06T03:21:55.098Z,1.7
2019-03-06T03:22:57.784Z,1.7
2019-03-06T03:24:00.769Z,1.7
2019-03-06T03:25:03.470Z,1.8
2019-03-06T03:26:05.634Z,1.8
2019-03-06T03:27:08.090Z,1.8
2019-03-06T03:28:10.657Z,1.8
2019-03-06T03:29:12.831Z,1.8
2019-03-06T03:30:15.652Z,1.7
2019-03-06T03:31:18.177Z,1.7
2019-03-06T03:32:20.625Z,1.7
2019-03-06T03:33:23.236Z,1.8
2019-03-06T03:34:27.000Z,1.8
2019-03-06T03:35:29.929Z,1.8
2019-03-06T03:36:32.405Z,1.8
2019-03-06T03:37:34.934Z,1.8
2019-03-06T03:38:37.843Z,1.7
2019-03-06T03:39:40.277Z,1.7
2019-03-06T03:40:42.818Z,1.7
2019-03-06T03:41:45.011Z,1.7
2019-03-06T03:42:47.462Z,1.7
2019-03-06T03:43:50.333Z,1.6
2019-03-06T03:44:52.472Z,1.6
2019-03-06T03:45:54.645Z,1.7
2019-03-06T03:46:56.773Z,1.7
2019-03-06T03:47:59.404Z,1.7
2019-03-06T03:49:01.638Z,1.6
2019-03-06T03:50:04.464Z,1.6
2019-03-06T03:51:07.289Z,1.6
2019-03-06T03:52:09.487Z,1.6
2019-03-06T03:53:11.649Z,1.6
2019-03-06T03:54:14.080Z,1.6
2019-03-06T03:55:16.245Z,1.6
2019-03-06T03:56:18.401Z,1.6
2019-03-06T03:57:20.826Z,1.6
2019-03-06T03:58:22.977Z,1.6
2019-03-06T03:59:26.164Z,1.5
2019-03-06T04:00:29.035Z,1.5
2019-03-06T04:01:31.911Z,1.5
2019-03-06T04:02:34.887Z,1.6
2019-03-06T04:03:37.039Z,1.6
2019-03-06T04:04:39.210Z,1.6
2019-03-06T04:05:42.052Z,1.6
2019-03-06T04:06:44.808Z,1.5
2019-03-06T04:07:46.967Z,1.6
2019-03-06T04:08:49.413Z,1.5
2019-03-06T04:09:51.546Z,1.5
2019-03-06T04:10:53.693Z,1.6
2019-03-06T04:11:55.843Z,1.6
2019-03-06T04:12:58.313Z,1.6
2019-03-06T04:14:01.191Z,1.6
2019-03-06T04:15:04.261Z,1.6
2019-03-06T04:16:06.693Z,1.6
2019-03-06T04:17:08.829Z,1.5
2019-03-06T04:18:11.682Z,1.5
2019-03-06T04:19:14.146Z,1.5
2019-03-06T04:20:16.400Z,1.5
2019-03-06T04:21:19.168Z,1.4
2019-03-06T04:22:21.304Z,1.4
2019-03-06T04:23:24.440Z,1.4
2019-03-06T04:24:27.485Z,1.4
2019-03-06T04:25:29.635Z,1.3
2019-03-06T04:26:33.048Z,1.3
2019-03-06T04:27:35.817Z,1.2
2019-03-06T04:28:38.748Z,1.2
2019-03-06T04:29:40.901Z,1.2
2019-03-06T04:30:43.035Z,1.2
2019-03-06T04:31:45.601Z,1.2
2019-03-06T04:32:47.731Z,1.1
2019-03-06T04:33:49.896Z,1.2
2019-03-06T04:34:52.037Z,1.1
2019-03-06T04:35:54.173Z,1.1
2019-03-06T04:36:56.302Z,1.1
2019-03-06T04:37:58.454Z,1.1
2019-03-06T04:39:00.559Z,1.1
2019-03-06T04:40:03.833Z,1.1
2019-03-06T04:41:06.405Z,1.1
2019-03-06T04:42:09.146Z,1.1
2019-03-06T04:43:11.640Z,1
2019-03-06T04:44:13.789Z,1
2019-03-06T04:45:16.216Z,1
2019-03-06T04:46:18.348Z,1
2019-03-06T04:47:20.502Z,1
2019-03-06T04:48:22.615Z,0.9
2019-03-06T04:49:24.744Z,1
2019-03-06T04:50:27.259Z,1
2019-03-06T04:51:29.406Z,0.9
2019-03-06T04:52:32.012Z,0.9
2019-03-06T04:53:34.606Z,0.9
2019-03-06T04:54:37.401Z,1
2019-03-06T04:55:39.517Z,0.9
2019-03-06T04:56:41.665Z,0.9
2019-03-06T04:57:44.072Z,0.9
2019-03-06T04:58:46.203Z,0.9
2019-03-06T04:59:48.337Z,0.9
2019-03-06T05:00:50.483Z,0.9
2019-03-06T05:01:52.599Z,0.9
2019-03-06T05:02:54.732Z,0.9
2019-03-06T05:03:56.843Z,1
2019-03-06T05:04:58.984Z,0.9
2019-03-06T05:06:01.690Z,0.9
2019-03-06T05:07:04.446Z,0.9
2019-03-06T05:08:06.913Z,0.9
2019-03-06T05:09:09.447Z,0.9
2019-03-06T05:10:11.575Z,0.9
2019-03-06T05:11:13.753Z,0.9
2019-03-06T05:12:15.868Z,0.9
2019-03-06T05:13:17.978Z,0.9
2019-03-06T05:14:20.114Z,0.9
2019-03-06T05:15:22.234Z,0.9
2019-03-06T05:16:24.349Z,0.9
2019-03-06T05:17:26.488Z,0.9
2019-03-06T05:18:29.281Z,0.9
2019-03-06T05:19:31.847Z,0.9
2019-03-06T05:20:33.981Z,0.9
2019-03-06T05:21:36.096Z,0.9
2019-03-06T05:22:38.240Z,0.9
2019-03-06T05:23:40.386Z,0.9
2019-03-06T05:24:42.526Z,0.9
2019-03-06T05:25:44.634Z,0.9
2019-03-06T05:26:47.064Z,0.9
2019-03-06T05:27:49.487Z,0.9
2019-03-06T05:28:51.663Z,0.9
2019-03-06T05:29:53.802Z,0.9
2019-03-06T05:30:56.382Z,0.9
2019-03-06T05:31:58.955Z,0.9
2019-03-06T05:33:01.068Z,0.9
2019-03-06T05:34:03.216Z,0.9
2019-03-06T05:35:05.335Z,0.9
2019-03-06T05:36:07.481Z,0.8
2019-03-06T05:37:10.292Z,0.8
2019-03-06T05:38:12.402Z,0.8
2019-03-06T05:39:14.554Z,0.8
2019-03-06T05:40:16.687Z,0.8
2019-03-06T05:41:19.217Z,0.8
2019-03-06T05:42:21.353Z,0.8
2019-03-06T05:43:23.469Z,0.8
2019-03-06T05:44:26.361Z,0.8
2019-03-06T05:45:28.799Z,0.8
2019-03-06T05:46:30.927Z,0.8
2019-03-06T05:47:33.061Z,0.8
2019-03-06T05:48:35.461Z,0.8
2019-03-06T05:49:37.858Z,0.7
2019-03-06T05:50:40.009Z,0.7
2019-03-06T05:51:42.136Z,0.8
2019-03-06T05:52:44.658Z,0.8
2019-03-06T05:53:46.796Z,0.8
2019-03-06T05:54:48.902Z,0.7
2019-03-06T05:55:51.426Z,0.7
2019-03-06T05:56:53.599Z,0.7
2019-03-06T05:57:56.941Z,0.7
2019-03-06T05:58:59.570Z,0.7
2019-03-06T06:00:01.739Z,0.8
2019-03-06T06:01:03.867Z,0.8
2019-03-06T06:02:05.983Z,0.8
2019-03-06T06:03:08.457Z,0.8
2019-03-06T06:04:10.575Z,0.8
2019-03-06T06:05:12.743Z,0.8
2019-03-06T06:06:14.867Z,0.8
2019-03-06T06:07:17.014Z,0.8
2019-03-06T06:08:19.137Z,0.9
2019-03-06T06:09:21.275Z,0.9
2019-03-06T06:10:24.111Z,0.9
2019-03-06T06:11:26.368Z,0.9
2019-03-06T06:12:29.349Z,0.9
2019-03-06T06:13:32.640Z,0.9
2019-03-06T06:14:34.755Z,0.9
2019-03-06T06:15:36.873Z,0.9
2019-03-06T06:16:39.002Z,0.9
2019-03-06T06:17:41.399Z,0.9
2019-03-06T06:18:43.811Z,0.9
2019-03-06T06:19:45.948Z,0.9
2019-03-06T06:20:48.070Z,1
2019-03-06T06:21:50.205Z,1
2019-03-06T06:22:52.365Z,1
2019-03-06T06:23:55.101Z,1
2019-03-06T06:24:57.608Z,1
2019-03-06T06:26:00.310Z,1
2019-03-06T06:27:02.838Z,1
2019-03-06T06:28:04.990Z,1
2019-03-06T06:29:07.116Z,1.1
2019-03-06T06:30:09.280Z,1.1
2019-03-06T06:31:11.397Z,1.1
2019-03-06T06:32:13.544Z,1.1
2019-03-06T06:33:15.688Z,1.2
2019-03-06T06:34:18.094Z,1.2
2019-03-06T06:35:20.227Z,1.2
2019-03-06T06:36:22.615Z,1.3
2019-03-06T06:37:25.105Z,1.3
2019-03-06T06:38:27.854Z,1.3
2019-03-06T06:39:30.381Z,1.3
2019-03-06T06:40:32.497Z,1.3
2019-03-06T06:41:34.670Z,1.3
2019-03-06T06:42:37.231Z,1.3
2019-03-06T06:43:39.360Z,1.4
2019-03-06T06:44:41.503Z,1.4
2019-03-06T06:45:43.647Z,1.4
2019-03-06T06:46:45.795Z,1.4
2019-03-06T06:47:47.934Z,1.4
2019-03-06T06:48:50.451Z,1.4
2019-03-06T06:49:53.172Z,1.5
2019-03-06T06:51:03.799Z,1.5
2019-03-06T06:52:06.731Z,1.5
2019-03-06T06:53:09.219Z,1.5
2019-03-06T06:54:11.641Z,1.5
2019-03-06T06:55:13.783Z,1.5
2019-03-06T06:56:15.967Z,1.5
2019-03-06T06:57:18.766Z,1.6
2019-03-06T06:58:20.926Z,1.5
2019-03-06T06:59:23.058Z,1.6
2019-03-06T07:00:25.176Z,1.5
2019-03-06T07:01:27.315Z,1.5
2019-03-06T07:02:29.439Z,1.6
2019-03-06T07:03:31.957Z,1.6
2019-03-06T07:04:34.368Z,1.6
2019-03-06T07:05:36.960Z,1.6
2019-03-06T07:06:39.262Z,1.6
2019-03-06T07:07:41.881Z,1.6
2019-03-06T07:08:44.413Z,1.6
2019-03-06T07:09:46.526Z,1.7
2019-03-06T07:10:48.684Z,1.7
2019-03-06T07:11:51.100Z,1.7
2019-03-06T07:12:53.509Z,1.7
2019-03-06T07:13:55.620Z,1.7
2019-03-06T07:14:57.772Z,1.7
2019-03-06T07:15:59.893Z,1.7
2019-03-06T07:17:02.008Z,1.8
2019-03-06T07:18:04.154Z,1.8
2019-03-06T07:19:06.765Z,1.8
2019-03-06T07:20:09.111Z,1.8
2019-03-06T07:21:11.640Z,1.8
2019-03-06T07:22:14.074Z,1.8
2019-03-06T07:23:16.196Z,1.8
2019-03-06T07:24:18.657Z,1.8
2019-03-06T07:25:20.848Z,1.9
2019-03-06T07:26:22.977Z,1.9
2019-03-06T07:27:25.118Z,1.9
2019-03-06T07:28:27.297Z,2
2019-03-06T07:29:29.413Z,2
2019-03-06T07:30:31.869Z,2
2019-03-06T07:31:33.992Z,2
2019-03-06T07:32:36.484Z,2
2019-03-06T07:33:39.061Z,2
2019-03-06T07:34:41.687Z,2.1
2019-03-06T07:35:44.430Z,2.1
2019-03-06T07:36:46.868Z,2.1
2019-03-06T07:37:49.007Z,2.1
2019-03-06T07:38:51.689Z,2.1
2019-03-06T07:39:53.830Z,2.2
2019-03-06T07:40:55.961Z,2.2
2019-03-06T07:41:58.387Z,2.2
2019-03-06T07:43:00.820Z,2.2
2019-03-06T07:44:02.946Z,2.2
2019-03-06T07:45:05.096Z,2.2
2019-03-06T07:46:07.229Z,2.2
2019-03-06T07:47:09.826Z,2.2
2019-03-06T07:48:12.121Z,2.2
2019-03-06T07:49:14.465Z,2.3
2019-03-06T07:50:16.601Z,2.3
2019-03-06T07:51:18.723Z,2.3
2019-03-06T07:52:20.856Z,2.3
2019-03-06T07:53:22.984Z,2.3
2019-03-06T07:54:25.118Z,2.3
2019-03-06T07:55:27.272Z,2.3
2019-03-06T07:56:29.415Z,2.3
2019-03-06T07:57:31.546Z,2.3
2019-03-06T07:58:33.689Z,2.3
2019-03-06T07:59:35.817Z,2.4
2019-03-06T08:00:38.461Z,2.5
2019-03-06T08:01:40.845Z,2.5
2019-03-06T08:02:42.985Z,2.5
2019-03-06T08:03:45.109Z,2.5
2019-03-06T08:04:47.529Z,2.5
2019-03-06T08:05:49.669Z,2.5
2019-03-06T08:06:51.798Z,2.5
2019-03-06T08:07:53.955Z,2.5
2019-03-06T08:08:56.074Z,2.5
2019-03-06T08:09:58.280Z,2.5
2019-03-06T08:11:00.704Z,2.5
2019-03-06T08:12:02.870Z,2.5
2019-03-06T08:13:05.008Z,2.5
2019-03-06T08:14:07.790Z,2.5
2019-03-06T08:15:10.317Z,2.6
2019-03-06T08:16:12.713Z,2.7
2019-03-06T08:17:14.844Z,2.7
2019-03-06T08:18:17.392Z,2.7
2019-03-06T08:19:19.518Z,2.7
2019-03-06T08:20:21.671Z,2.7
2019-03-06T08:21:24.078Z,2.8
2019-03-06T08:22:26.614Z,2.8
2019-03-06T08:23:28.757Z,2.8
2019-03-06T08:24:31.897Z,2.8
2019-03-06T08:25:34.046Z,2.8
2019-03-06T08:26:36.174Z,2.9
2019-03-06T08:27:38.348Z,2.9
2019-03-06T08:28:41.764Z,2.9
2019-03-06T08:29:44.288Z,3
2019-03-06T08:30:46.720Z,3
2019-03-06T08:31:48.876Z,3
2019-03-06T08:32:51.021Z,3
2019-03-06T08:33:53.137Z,3.1
2019-03-06T08:34:55.278Z,3.2
2019-03-06T08:35:57.420Z,3.2
2019-03-06T08:36:59.863Z,3.2
2019-03-06T08:38:02.000Z,3.3
2019-03-06T08:39:04.814Z,3.3
2019-03-06T08:40:06.944Z,3.3
2019-03-06T08:41:09.406Z,3.4
2019-03-06T08:42:11.743Z,3.4
2019-03-06T08:43:14.338Z,3.4
2019-03-06T08:44:16.461Z,3.5
2019-03-06T08:45:18.608Z,3.5
2019-03-06T08:46:20.772Z,3.5
2019-03-06T08:47:23.185Z,3.6
2019-03-06T08:48:26.001Z,3.6
2019-03-06T08:49:28.113Z,3.6
2019-03-06T08:50:30.258Z,3.7
2019-03-06T08:51:32.438Z,3.8
2019-03-06T08:52:34.862Z,3.8
2019-03-06T08:53:37.030Z,3.8
2019-03-06T08:54:39.684Z,3.8
2019-03-06T08:55:42.103Z,3.9
2019-03-06T08:56:44.438Z,3.9
2019-03-06T08:57:47.553Z,4
2019-03-06T08:58:50.168Z,4
2019-03-06T08:59:52.344Z,4
2019-03-06T09:00:54.490Z,4.1
2019-03-06T09:02:02.225Z,4.1
2019-03-06T09:03:04.758Z,4.1
2019-03-06T09:04:06.887Z,4.1
2019-03-06T09:05:09.291Z,4.2
2019-03-06T09:06:11.442Z,4.2
2019-03-06T09:07:13.907Z,4.2
2019-03-06T09:08:16.044Z,4.2
2019-03-06T09:09:18.537Z,4.2
2019-03-06T09:10:22.218Z,4.3
2019-03-06T09:11:24.938Z,4.3
2019-03-06T09:12:27.075Z,4.3
2019-03-06T09:13:29.237Z,4.3
2019-03-06T09:14:31.351Z,4.3
2019-03-06T09:15:33.497Z,4.3
2019-03-06T09:16:35.627Z,4.4
2019-03-06T09:17:37.777Z,4.4
2019-03-06T09:18:39.883Z,4.4
2019-03-06T09:19:42.025Z,4.5
2019-03-06T09:20:44.157Z,4.5
2019-03-06T09:21:46.287Z,4.5
2019-03-06T09:22:48.724Z,4.5
2019-03-06T09:23:51.996Z,4.6
2019-03-06T09:24:54.863Z,4.6
2019-03-06T09:25:57.011Z,4.6
2019-03-06T09:27:00.784Z,4.6
2019-03-06T09:28:03.195Z,4.6
2019-03-06T09:29:05.329Z,4.7
2019-03-06T09:30:17.037Z,4.7
2019-03-06T09:31:19.187Z,4.8
2019-03-06T09:32:21.310Z,4.8
2019-03-06T09:33:23.444Z,4.8
2019-03-06T09:34:25.639Z,4.9
2019-03-06T09:35:27.799Z,4.9
2019-03-06T09:36:30.205Z,4.9
2019-03-06T09:37:32.353Z,4.9
2019-03-06T09:38:34.774Z,4.9
2019-03-06T09:39:37.571Z,5
2019-03-06T09:40:40.118Z,5
2019-03-06T09:41:42.547Z,5.1
2019-03-06T09:42:44.719Z,5.1
2019-03-06T09:43:46.865Z,5.2
2019-03-06T09:44:49.399Z,5.2
2019-03-06T09:45:51.912Z,5.3
2019-03-06T09:46:54.067Z,5.3
2019-03-06T09:47:56.199Z,5.4
2019-03-06T09:48:58.327Z,5.4
2019-03-06T09:50:00.563Z,5.4
2019-03-06T09:51:02.718Z,5.4
2019-03-06T09:52:05.418Z,5.5
2019-03-06T09:53:08.195Z,5.5
2019-03-06T09:54:10.872Z,5.6
2019-03-06T09:55:12.995Z,5.7
2019-03-06T09:56:15.534Z,5.7
2019-03-06T09:57:18.217Z,5.7
2019-03-06T09:58:20.351Z,5.8
2019-03-06T09:59:22.759Z,5.8
2019-03-06T10:00:24.936Z,5.8
2019-03-06T10:01:27.056Z,5.8
2019-03-06T10:02:29.188Z,5.9
2019-03-06T10:03:31.328Z,6
2019-03-06T10:04:33.449Z,6
2019-03-06T10:05:36.207Z,6.1
2019-03-06T10:06:38.660Z,6.1
2019-03-06T10:07:41.152Z,6.1
2019-03-06T10:08:43.286Z,6.1
2019-03-06T10:09:45.404Z,6.2
2019-03-06T10:10:59.641Z,6.3
2019-03-06T10:12:02.053Z,6.2
2019-03-06T10:13:04.708Z,6.3
2019-03-06T10:14:06.869Z,6.3
2019-03-06T10:15:09.031Z,6.3
2019-03-06T10:16:11.152Z,6.3
2019-03-06T10:17:13.319Z,6.4
2019-03-06T10:18:15.775Z,6.4
2019-03-06T10:19:17.920Z,6.3
2019-03-06T10:20:27.146Z,6.3
2019-03-06T10:21:29.281Z,6.3
2019-03-06T10:22:32.178Z,6.4
2019-03-06T10:23:34.963Z,6.3
2019-03-06T10:24:37.144Z,6.4
2019-03-06T10:25:39.345Z,6.4
2019-03-06T10:26:41.550Z,6.4
2019-03-06T10:27:43.746Z,6.4
2019-03-06T10:28:46.713Z,6.5
2019-03-06T10:29:49.726Z,6.6
2019-03-06T10:30:51.926Z,6.6
2019-03-06T10:32:05.679Z,6.6
2019-03-06T10:33:08.692Z,6.7
2019-03-06T10:34:10.941Z,6.7
2019-03-06T10:35:13.462Z,6.7
2019-03-06T10:36:15.707Z,6.7
2019-03-06T10:37:19.382Z,6.7
2019-03-06T10:38:21.651Z,6.7
2019-03-06T10:39:23.937Z,6.7
2019-03-06T10:40:26.859Z,6.8
2019-03-06T10:41:29.418Z,6.8
2019-03-06T10:42:31.662Z,6.8
2019-03-06T10:43:33.866Z,6.9
2019-03-06T10:44:36.388Z,7
2019-03-06T10:45:43.225Z,7.1
2019-03-06T10:46:45.546Z,7.2
2019-03-06T10:47:47.809Z,7.2
2019-03-06T10:48:50.682Z,7.3
2019-03-06T10:49:53.423Z,7.4
2019-03-06T10:50:55.701Z,7.3
2019-03-06T10:51:58.686Z,7.4
2019-03-06T10:53:01.064Z,7.5
2019-03-06T10:54:03.320Z,7.5
2019-03-06T10:55:05.564Z,7.6
2019-03-06T10:56:08.072Z,7.6
2019-03-06T10:57:13.029Z,7.7
2019-03-06T10:58:15.841Z,7.7
2019-03-06T10:59:18.496Z,7.8
2019-03-06T11:00:21.453Z,7.8
2019-03-06T11:01:24.093Z,7.8
2019-03-06T11:02:26.341Z,7.9
2019-03-06T11:03:28.904Z,7.9
2019-03-06T11:04:31.086Z,8
2019-03-06T11:05:33.311Z,7.9
2019-03-06T11:06:35.590Z,7.9
2019-03-06T11:07:37.838Z,7.8
2019-03-06T11:08:40.730Z,7.8
2019-03-06T11:09:43.294Z,7.8
2019-03-06T11:10:45.841Z,8
2019-03-06T11:11:48.447Z,8.1
2019-03-06T11:12:50.681Z,8
2019-03-06T11:13:52.910Z,8
2019-03-06T11:14:55.136Z,8
2019-03-06T11:15:57.362Z,8.1
2019-03-06T11:17:00.323Z,7.9
2019-03-06T11:18:03.726Z,8
2019-03-06T11:19:06.309Z,8
2019-03-06T11:20:08.487Z,8.1
2019-03-06T11:21:10.634Z,8.2
2019-03-06T11:22:12.798Z,8.2
2019-03-06T11:23:15.295Z,8.1
2019-03-06T11:24:17.443Z,8.1
2019-03-06T11:25:20.626Z,8.1
2019-03-06T11:26:23.312Z,8.1
2019-03-06T11:27:25.552Z,8.2
2019-03-06T11:28:27.767Z,8.2
2019-03-06T11:29:29.993Z,8.2
2019-03-06T11:30:32.438Z,8.2
2019-03-06T11:31:35.008Z,8.2
2019-03-06T11:32:37.214Z,8.4
2019-03-06T11:33:39.392Z,8.3
2019-03-06T11:34:41.581Z,8.2
2019-03-06T11:35:44.504Z,8.3
2019-03-06T11:36:46.935Z,8.3
2019-03-06T11:37:49.187Z,8.4
2019-03-06T11:38:51.377Z,8.4
2019-03-06T11:39:53.602Z,8.4
2019-03-06T11:40:55.746Z,8.4
2019-03-06T11:41:57.957Z,8.4
2019-03-06T11:43:00.129Z,8.4
2019-03-06T11:44:02.318Z,8.4
2019-03-06T11:45:04.519Z,8.5
2019-03-06T11:46:06.683Z,8.6
2019-03-06T11:47:09.568Z,8.7
2019-03-06T11:48:12.126Z,8.8
2019-03-06T11:49:14.612Z,8.8
2019-03-06T11:50:16.853Z,8.8
2019-03-06T11:51:19.315Z,8.7
2019-03-06T11:52:23.984Z,8.8
2019-03-06T11:53:26.568Z,8.8
2019-03-06T11:54:28.820Z,8.9
2019-03-06T11:55:31.024Z,8.9
2019-03-06T11:56:33.218Z,9
2019-03-06T11:57:35.899Z,9.1
2019-03-06T11:58:38.833Z,9.2
2019-03-06T11:59:41.818Z,9.3
2019-03-06T12:00:44.024Z,9.2
2019-03-06T12:01:49.770Z,9.2
2019-03-06T12:02:52.247Z,9.2
2019-03-06T12:03:54.441Z,9.3
2019-03-06T12:04:57.018Z,9.3
2019-03-06T12:05:59.287Z,9.4
2019-03-06T12:07:02.172Z,9.4
2019-03-06T12:08:04.382Z,9.4
2019-03-06T12:09:06.586Z,9.4
2019-03-06T12:10:09.534Z,9.2
2019-03-06T12:11:12.816Z,9.4
2019-03-06T12:12:15.017Z,9.5
2019-03-06T12:13:17.224Z,9.6
2019-03-06T12:14:19.409Z,9.5
2019-03-06T12:15:21.621Z,9.6
2019-03-06T12:16:23.798Z,9.5
2019-03-06T12:17:26.011Z,9.5
2019-03-06T12:18:28.235Z,9.6
2019-03-06T12:19:30.431Z,9.6
2019-03-06T12:20:33.772Z,9.5
2019-03-06T12:21:36.219Z,9.5
2019-03-06T12:22:38.425Z,9.5
2019-03-06T12:23:40.598Z,9.5
2019-03-06T12:24:42.800Z,9.5
2019-03-06T12:25:44.973Z,9.5
2019-03-06T12:26:47.163Z,9.6
2019-03-06T12:27:49.374Z,9.6
2019-03-06T12:28:51.568Z,9.6
2019-03-06T12:29:53.718Z,9.6
2019-03-06T12:30:55.927Z,9.5
2019-03-06T12:31:59.187Z,9.6
2019-03-06T12:33:01.846Z,9.6
2019-03-06T12:34:04.007Z,9.6
2019-03-06T12:35:06.138Z,9.6
2019-03-06T12:36:08.297Z,9.6
2019-03-06T12:37:10.492Z,9.6
2019-03-06T12:38:12.704Z,9.6
2019-03-06T12:39:14.906Z,9.7
2019-03-06T12:40:17.068Z,9.7
2019-03-06T12:41:19.239Z,9.7
2019-03-06T12:42:21.404Z,9.6
2019-03-06T12:43:24.235Z,9.6
2019-03-06T12:44:27.032Z,9.7
2019-03-06T12:45:29.668Z,9.6
2019-03-06T12:46:31.840Z,9.7
2019-03-06T12:47:33.996Z,9.7
2019-03-06T12:48:36.165Z,9.7
2019-03-06T12:49:38.620Z,9.7
2019-03-06T12:50:40.758Z,9.7
2019-03-06T12:51:43.223Z,9.8
2019-03-06T12:52:45.368Z,9.8
2019-03-06T12:53:47.530Z,9.8
2019-03-06T12:54:49.999Z,9.8
2019-03-06T12:55:52.719Z,9.8
2019-03-06T12:56:55.127Z,9.9
2019-03-06T12:58:00.718Z,9.9
2019-03-06T12:59:02.869Z,9.9
2019-03-06T13:00:05.316Z,9.9
2019-03-06T13:01:07.488Z,10
2019-03-06T13:02:09.654Z,10
2019-03-06T13:03:12.103Z,10.1
2019-03-06T13:04:14.670Z,10.1
2019-03-06T13:05:16.864Z,10.1
2019-03-06T13:06:26.568Z,10.1
2019-03-06T13:07:28.820Z,10.1
2019-03-06T13:08:31.588Z,10.2
2019-03-06T13:09:34.107Z,10.3
2019-03-06T13:10:36.441Z,10.3
2019-03-06T13:11:38.640Z,10.3
2019-03-06T13:12:40.792Z,10.4
2019-03-06T13:13:43.017Z,10.3
2019-03-06T13:14:45.237Z,10.4
2019-03-06T13:15:47.421Z,10.3
2019-03-06T13:16:49.636Z,10.3
2019-03-06T13:17:51.836Z,10.3
2019-03-06T13:18:54.037Z,10.3
2019-03-06T13:19:57.358Z,10.4
2019-03-06T13:20:59.977Z,10.4
2019-03-06T13:22:13.960Z,10.4
2019-03-06T13:23:16.628Z,10.4
2019-03-06T13:24:18.815Z,10.4
2019-03-06T13:25:21.005Z,10.4
2019-03-06T13:26:23.182Z,10.4
2019-03-06T13:27:25.351Z,10.4
2019-03-06T13:28:27.851Z,10.4
2019-03-06T13:29:30.039Z,10.5
2019-03-06T13:30:34.224Z,10.4
2019-03-06T13:31:36.853Z,10.5
2019-03-06T13:32:39.018Z,10.5
2019-03-06T13:33:41.976Z,10.5
2019-03-06T13:34:53.644Z,10.5
2019-03-06T13:35:56.585Z,10.4
2019-03-06T13:36:59.535Z,10.4
2019-03-06T13:38:01.757Z,10.5
2019-03-06T13:39:08.312Z,10.5
2019-03-06T13:40:19.895Z,10.4
2019-03-06T13:41:22.875Z,10.4
2019-03-06T13:42:27.027Z,10.4
2019-03-06T13:43:29.243Z,10.5
2019-03-06T13:44:31.449Z,10.5
2019-03-06T13:45:33.668Z,10.5
2019-03-06T13:46:35.844Z,10.5
2019-03-06T13:47:38.036Z,10.5
2019-03-06T13:48:40.257Z,10.6
2019-03-06T13:49:45.019Z,10.5
2019-03-06T13:50:47.636Z,10.5
2019-03-06T13:51:49.839Z,10.5
2019-03-06T13:52:52.093Z,10.5
2019-03-06T13:53:56.539Z,10.5
2019-03-06T13:54:58.893Z,10.5
2019-03-06T13:56:01.086Z,10.5
2019-03-06T13:57:03.292Z,10.5
2019-03-06T13:58:05.504Z,10.5
2019-03-06T13:59:08.260Z,10.6
2019-03-06T14:00:10.475Z,10.5
2019-03-06T14:01:13.375Z,10.5
2019-03-06T14:02:15.989Z,10.5
2019-03-06T14:03:18.187Z,10.5
2019-03-06T14:04:20.705Z,10.5
2019-03-06T14:05:22.889Z,10.5
2019-03-06T14:06:25.081Z,10.5
2019-03-06T14:07:27.569Z,10.5
2019-03-06T14:08:30.016Z,10.5
2019-03-06T14:09:32.485Z,10.5
2019-03-06T14:10:35.023Z,10.5
2019-03-06T14:11:37.404Z,10.5
2019-03-06T14:12:39.928Z,10.5
2019-03-06T14:13:42.598Z,10.5
2019-03-06T14:14:44.806Z,10.5
2019-03-06T14:15:55.374Z,10.5
2019-03-06T14:16:57.558Z,10.5
2019-03-06T14:17:59.731Z,10.5
2019-03-06T14:19:01.933Z,10.5
2019-03-06T14:20:04.145Z,10.5
2019-03-06T14:21:06.699Z,10.5